This is the latest recevied weather packets stored in our database for station/object KG7DQI-13. If no packets are shown the sender has not sent any weather packets the latest 10 day(s).
| Time | Temp. | Humidity | Pressure | Rain* | Wind** | Luminosity | Snow |
|---|---|---|---|---|---|---|---|
| 1777591555 | 22.22° C | 32% | 915.4 hPa | 0 mm | - | 206 W/m² | - |
| 1777590675 | 22.22° C | 31% | 915.5 hPa | 0 mm | - | 232 W/m² | - |
| 1777589786 | 22.78° C | 29% | 915.6 hPa | 0 mm | - | 427 W/m² | - |
| 1777588868 | 22.78° C | 29% | 915.9 hPa | 0 mm | - | 543 W/m² | - |
| 1777587940 | 23.33° C | 29% | 915.9 hPa | 0 mm | - | 608 W/m² | - |
| 1777587014 | 22.78° C | 29% | 916.1 hPa | 0 mm | - | 657 W/m² | - |
| 1777586126 | 22.78° C | 29% | 916.4 hPa | 0 mm | - | 756 W/m² | - |
| 1777585239 | 22.78° C | 31% | 916.6 hPa | 0 mm | - | 731 W/m² | - |
| 1777584311 | 22.22° C | 32% | 916.7 hPa | 0 mm | - | 877 W/m² | - |
| 1777583387 | 22.22° C | 33% | 916.9 hPa | 0 mm | - | 875 W/m² | - |
| 1777582489 | 21.67° C | 35% | 917.1 hPa | 0 mm | - | 707 W/m² | - |
| 1777581624 | 20.56° C | 36% | 917.1 hPa | 0 mm | - | 756 W/m² | - |
| 1777580676 | 20° C | 37% | 917.3 hPa | 0 mm | - | 923 W/m² | - |
| 1777579729 | 20° C | 37% | 917.4 hPa | 0 mm | - | 316 W/m² | - |
| 1777578851 | 20° C | 38% | 917.6 hPa | 0 mm | - | 756 W/m² | - |
| 1777577982 | 20° C | 37% | 917.8 hPa | 0 mm | - | 847 W/m² | - |
| 1777577086 | 19.44° C | 38% | 917.9 hPa | 0 mm | - | 429 W/m² | - |
| 1777576214 | 19.44° C | 38% | 918 hPa | 0 mm | - | 898 W/m² | - |
| 1777575287 | 19.44° C | 39% | 918.2 hPa | 0 mm | - | 881 W/m² | - |
| 1777574351 | 18.33° C | 43% | 918.5 hPa | 0 mm | - | 765 W/m² | - |
| 1777573466 | 17.78° C | 42% | 918.7 hPa | 0 mm | - | 798 W/m² | - |
| 1777572554 | 17.22° C | 44% | 918.7 hPa | 0 mm | - | 555 W/m² | - |
| 1777571616 | 17.22° C | 44% | 918.8 hPa | 0 mm | - | 773 W/m² | - |
| 1777570720 | 16.11° C | 46% | 919 hPa | 0 mm | - | 737 W/m² | - |
| 1777569823 | 15.56° C | 47% | 919.2 hPa | 0 mm | - | 656 W/m² | - |
* Rain latest hour (hover to see other rain measurements)
** Current wind speed in m/s (hover to see current wind gust speed)